createdAt,value
2023-04-14T00:02:44.813Z,14.50
2023-04-14T00:05:31.443Z,14.40
2023-04-14T00:08:17.582Z,8.65
2023-04-14T00:11:04.022Z,14.02
2023-04-14T00:13:51.745Z,15.73
2023-04-14T00:16:39.497Z,10.45
2023-04-14T00:19:25.997Z,10.80
2023-04-14T00:22:12.333Z,12.82
2023-04-14T00:24:59.176Z,10.75
2023-04-14T00:27:45.164Z,12.95
2023-04-14T00:30:32.846Z,10.52
2023-04-14T00:33:19.148Z,11.00
2023-04-14T00:36:06.469Z,12.73
2023-04-14T00:38:53.017Z,9.40
2023-04-14T00:41:39.169Z,12.45
2023-04-14T00:44:26.284Z,10.77
2023-04-14T00:47:14.507Z,7.93
2023-04-14T00:50:00.850Z,7.85
2023-04-14T00:52:48.370Z,6.80
2023-04-14T00:55:34.863Z,9.32
2023-04-14T00:58:21.069Z,7.20
2023-04-14T01:01:08.018Z,9.55
2023-04-14T01:03:56.088Z,9.98
2023-04-14T01:06:42.666Z,11.60
2023-04-14T01:09:29.303Z,13.35
2023-04-14T01:12:26.601Z,11.13
2023-04-14T01:15:19.556Z,13.68
2023-04-14T01:18:11.826Z,10.82
2023-04-14T01:21:06.381Z,12.75
2023-04-14T01:24:09.657Z,11.40
2023-04-14T01:27:06.516Z,17.55
2023-04-14T01:30:11.270Z,18.23
2023-04-14T01:33:04.384Z,11.70
2023-04-14T01:35:56.213Z,9.73
2023-04-14T01:38:45.301Z,10.27
2023-04-14T01:41:35.192Z,13.50
2023-04-14T01:44:23.966Z,14.35
2023-04-14T01:47:13.846Z,12.18
2023-04-14T01:50:05.169Z,12.88
2023-04-14T01:52:54.200Z,13.63
2023-04-14T01:55:44.015Z,11.73
2023-04-14T01:58:32.112Z,14.77
2023-04-14T02:01:20.301Z,15.23
2023-04-14T02:06:57.338Z,10.93
2023-04-14T02:09:46.120Z,11.15
2023-04-14T02:12:32.670Z,11.73
2023-04-14T02:15:19.610Z,13.20
2023-04-14T02:18:07.882Z,15.52
2023-04-14T02:20:57.138Z,12.38
2023-04-14T02:23:44.686Z,13.38
2023-04-14T02:26:33.377Z,9.15
2023-04-14T02:29:22.634Z,13.45
2023-04-14T02:32:15.861Z,17.83
2023-04-14T02:35:09.027Z,13.05
2023-04-14T02:38:01.214Z,18.52
2023-04-14T02:40:49.501Z,11.63
2023-04-14T02:43:44.184Z,10.07
2023-04-14T02:46:36.231Z,15.55
2023-04-14T02:49:23.647Z,13.65
2023-04-14T02:52:14.859Z,12.55
2023-04-14T02:55:04.715Z,15.70
2023-04-14T02:57:54.030Z,15.63
2023-04-14T03:00:42.036Z,13.57
2023-04-14T03:03:29.991Z,16.00
2023-04-14T03:06:19.892Z,18.10
2023-04-14T03:09:06.443Z,13.63
2023-04-14T03:11:55.024Z,16.52
2023-04-14T03:14:44.118Z,20.77
2023-04-14T03:17:32.423Z,12.88
2023-04-14T03:20:21.733Z,18.67
2023-04-14T03:23:12.071Z,15.68
2023-04-14T03:26:06.133Z,20.02
2023-04-14T03:28:54.363Z,13.10
2023-04-14T03:31:44.701Z,27.25
2023-04-14T03:34:34.612Z,19.27
2023-04-14T03:37:25.918Z,12.68
2023-04-14T03:40:15.530Z,13.02
2023-04-14T03:43:05.668Z,16.27
2023-04-14T03:45:52.225Z,15.23
2023-04-14T03:48:44.161Z,14.45
2023-04-14T03:51:35.021Z,13.65
2023-04-14T03:54:24.001Z,13.68
2023-04-14T03:57:12.968Z,16.17
2023-04-14T04:00:02.216Z,16.52
2023-04-14T04:03:00.797Z,16.27
2023-04-14T04:05:49.557Z,19.08
2023-04-14T04:08:37.652Z,17.75
2023-04-14T04:11:25.909Z,10.90
2023-04-14T04:14:14.258Z,13.25
2023-04-14T04:17:06.853Z,14.15
2023-04-14T04:19:55.902Z,14.30
2023-04-14T04:22:46.131Z,20.58
2023-04-14T04:25:33.254Z,17.35
2023-04-14T04:28:27.603Z,18.20
2023-04-14T04:31:15.990Z,15.13
2023-04-14T04:34:03.515Z,16.30
2023-04-14T04:36:53.211Z,14.75
2023-04-14T04:39:41.071Z,15.45
2023-04-14T04:42:28.460Z,15.88
2023-04-14T04:45:36.454Z,14.68
2023-04-14T04:48:23.165Z,14.75
2023-04-14T04:51:09.495Z,15.57
2023-04-14T04:53:55.496Z,14.70
2023-04-14T04:56:42.870Z,13.50
2023-04-14T04:59:29.693Z,14.10
2023-04-14T05:02:15.661Z,13.05
2023-04-14T05:05:01.729Z,23.25
2023-04-14T05:07:48.169Z,14.07
2023-04-14T05:10:35.350Z,15.43
2023-04-14T05:13:23.086Z,14.30
2023-04-14T05:16:10.783Z,18.05
2023-04-14T05:18:57.119Z,15.32
2023-04-14T05:21:43.705Z,15.75
2023-04-14T05:24:31.149Z,14.20
2023-04-14T05:27:17.218Z,16.67
2023-04-14T05:30:05.284Z,13.68
2023-04-14T05:32:51.941Z,13.13
2023-04-14T05:35:38.096Z,13.02
2023-04-14T05:38:24.302Z,10.18
2023-04-14T05:41:11.907Z,10.27
2023-04-14T05:43:58.373Z,13.63
2023-04-14T05:46:46.690Z,16.90
2023-04-14T05:49:33.584Z,15.48
2023-04-14T05:52:20.509Z,17.90
2023-04-14T05:55:08.625Z,13.15
2023-04-14T05:57:55.072Z,14.40
2023-04-14T06:00:43.130Z,15.07
2023-04-14T06:03:33.033Z,17.80
2023-04-14T06:06:20.821Z,17.17
2023-04-14T06:09:07.150Z,14.65
2023-04-14T06:11:53.979Z,16.50
2023-04-14T06:14:40.485Z,11.68
2023-04-14T06:17:28.155Z,15.88
2023-04-14T06:20:15.870Z,12.23
2023-04-14T06:23:05.476Z,14.43
2023-04-14T06:25:55.613Z,10.18
2023-04-14T06:28:43.676Z,11.77
2023-04-14T06:31:30.440Z,10.05
2023-04-14T06:34:17.227Z,9.18
2023-04-14T06:37:04.776Z,19.52
2023-04-14T06:39:51.316Z,9.73
2023-04-14T06:42:37.722Z,11.30
2023-04-14T06:45:24.137Z,14.70
2023-04-14T06:48:12.492Z,11.50
2023-04-14T06:50:58.825Z,10.25
2023-04-14T06:53:46.865Z,12.85
2023-04-14T06:56:34.422Z,11.20
2023-04-14T06:59:23.067Z,10.80
2023-04-14T07:02:11.115Z,12.95
2023-04-14T07:04:58.197Z,14.05
2023-04-14T07:07:47.038Z,11.25
2023-04-14T07:10:35.170Z,15.00
2023-04-14T07:13:21.914Z,10.38
2023-04-14T07:16:10.791Z,9.55
2023-04-14T07:18:57.157Z,10.40
2023-04-14T07:21:45.896Z,8.80
2023-04-14T07:24:32.203Z,12.65
2023-04-14T07:27:21.709Z,12.27
2023-04-14T07:30:09.837Z,9.02
2023-04-14T07:32:55.942Z,13.35
2023-04-14T07:35:54.455Z,13.15
2023-04-14T07:38:50.545Z,12.13
2023-04-14T07:41:36.899Z,8.80
2023-04-14T07:44:24.972Z,8.65
2023-04-14T07:47:12.052Z,11.98
2023-04-14T07:49:58.668Z,12.57
2023-04-14T07:52:45.508Z,8.93
2023-04-14T07:55:31.920Z,10.93
2023-04-14T07:58:18.213Z,8.48
2023-04-14T08:01:06.361Z,11.02
2023-04-14T08:03:54.649Z,8.02
2023-04-14T08:06:41.511Z,10.85
2023-04-14T08:09:29.100Z,12.75
2023-04-14T08:12:17.105Z,9.02
2023-04-14T08:15:03.670Z,9.25
2023-04-14T08:17:54.055Z,8.95
2023-04-14T08:20:41.659Z,8.57
2023-04-14T08:23:28.270Z,4.68
2023-04-14T08:26:14.642Z,7.82
2023-04-14T08:29:01.242Z,5.50
2023-04-14T08:31:48.002Z,6.60
2023-04-14T08:34:37.960Z,9.35
2023-04-14T08:37:24.266Z,4.75
2023-04-14T08:40:11.838Z,8.57
2023-04-14T08:42:58.337Z,8.98
2023-04-14T08:45:45.160Z,13.73
2023-04-14T08:48:33.230Z,4.63
2023-04-14T08:51:28.111Z,7.07
2023-04-14T08:54:17.016Z,6.95
2023-04-14T08:57:05.615Z,9.98
2023-04-14T08:59:57.439Z,9.30
2023-04-14T09:02:44.458Z,7.85
2023-04-14T09:05:31.129Z,6.32
2023-04-14T09:08:21.074Z,6.65
2023-04-14T09:11:07.519Z,6.72
2023-04-14T09:13:54.655Z,7.47
2023-04-14T09:16:41.007Z,6.88
2023-04-14T09:19:28.020Z,9.00
2023-04-14T09:22:15.537Z,6.43
2023-04-14T09:25:04.206Z,8.50
2023-04-14T09:27:50.835Z,6.32
2023-04-14T09:30:38.433Z,7.05
2023-04-14T09:33:25.450Z,7.95
2023-04-14T09:36:19.557Z,6.50
2023-04-14T09:39:17.328Z,9.32
2023-04-14T09:42:06.148Z,6.32
2023-04-14T09:44:56.282Z,6.90
2023-04-14T09:47:42.572Z,5.93
2023-04-14T09:50:28.843Z,7.10
2023-04-14T09:53:15.535Z,4.82
2023-04-14T09:56:04.854Z,6.15
2023-04-14T09:59:00.519Z,4.63
2023-04-14T10:01:47.581Z,7.22
2023-04-14T10:04:35.135Z,4.13
2023-04-14T10:07:21.625Z,8.32
2023-04-14T10:10:11.547Z,6.28
2023-04-14T10:12:58.026Z,6.88
2023-04-14T10:15:50.574Z,4.60
2023-04-14T10:18:37.798Z,8.90
2023-04-14T10:21:24.294Z,7.78
2023-04-14T10:24:12.739Z,6.10
2023-04-14T10:27:04.111Z,4.75
2023-04-14T10:29:50.628Z,7.10
2023-04-14T10:32:42.658Z,5.65
2023-04-14T10:35:40.742Z,8.05
2023-04-14T10:38:59.478Z,7.75
2023-04-14T10:41:47.661Z,3.90
2023-04-14T10:44:36.323Z,7.70
2023-04-14T10:47:25.009Z,4.95
2023-04-14T10:50:16.321Z,6.28
2023-04-14T10:53:09.330Z,4.38
2023-04-14T10:55:57.225Z,7.03
2023-04-14T10:58:57.667Z,6.35
2023-04-14T11:01:44.250Z,4.97
2023-04-14T11:04:30.545Z,4.53
2023-04-14T11:07:22.847Z,4.50
2023-04-14T11:10:32.045Z,3.92
2023-04-14T11:13:19.192Z,6.13
2023-04-14T11:16:07.342Z,4.15
2023-04-14T11:18:55.547Z,6.32
2023-04-14T11:21:49.738Z,4.72
2023-04-14T11:24:40.275Z,4.82
2023-04-14T11:27:26.666Z,3.38
2023-04-14T11:30:15.601Z,5.10
2023-04-14T11:33:01.703Z,5.90
2023-04-14T11:35:48.937Z,5.28
2023-04-14T11:38:40.243Z,7.68
2023-04-14T11:41:31.323Z,7.45
2023-04-14T11:44:17.975Z,4.50
2023-04-14T11:47:05.176Z,5.72
2023-04-14T11:49:53.270Z,4.78
2023-04-14T11:52:46.735Z,7.18
2023-04-14T11:55:33.122Z,2.38
2023-04-14T11:58:24.466Z,5.22
2023-04-14T12:01:14.786Z,6.53
2023-04-14T12:04:01.722Z,5.40
2023-04-14T12:06:48.328Z,3.22
2023-04-14T12:09:35.284Z,5.78
2023-04-14T12:12:21.574Z,3.92
2023-04-14T12:15:10.956Z,5.88
2023-04-14T12:17:58.111Z,3.67
2023-04-14T12:20:47.176Z,4.63
2023-04-14T12:23:35.783Z,4.20
2023-04-14T12:26:22.046Z,6.88
2023-04-14T12:29:08.850Z,5.95
2023-04-14T12:31:56.634Z,7.55
2023-04-14T12:34:54.320Z,6.95
2023-04-14T12:37:41.362Z,5.60
2023-04-14T12:40:38.569Z,7.88
2023-04-14T12:43:29.400Z,6.03
2023-04-14T12:46:27.287Z,3.15
2023-04-14T12:49:37.481Z,4.68
2023-04-14T12:52:38.287Z,5.60
2023-04-14T12:55:27.396Z,4.75
2023-04-14T12:58:13.437Z,5.13
2023-04-14T13:01:00.155Z,5.55
2023-04-14T13:03:50.294Z,5.30
2023-04-14T13:06:38.808Z,7.88
2023-04-14T13:09:25.312Z,2.38
2023-04-14T13:12:14.658Z,6.35
2023-04-14T13:15:02.577Z,4.45
2023-04-14T13:17:49.259Z,7.40
2023-04-14T13:20:35.950Z,5.22
2023-04-14T13:23:23.724Z,3.22
2023-04-14T13:26:10.289Z,3.58
2023-04-14T13:28:56.845Z,5.55
2023-04-14T13:31:43.868Z,4.13
2023-04-14T13:34:30.759Z,4.78
2023-04-14T13:37:17.921Z,4.53
2023-04-14T13:40:06.625Z,3.45
2023-04-14T13:42:52.834Z,5.07
2023-04-14T13:45:40.049Z,7.43
2023-04-14T13:48:27.252Z,2.30
2023-04-14T13:51:14.880Z,3.28
2023-04-14T13:54:01.596Z,3.60
2023-04-14T13:56:52.339Z,2.92
2023-04-14T13:59:38.834Z,6.00
2023-04-14T14:02:25.083Z,5.88
2023-04-14T14:05:12.215Z,3.83
2023-04-14T14:07:59.586Z,3.63
2023-04-14T14:15:38.653Z,3.42
2023-04-14T14:18:25.234Z,5.93
2023-04-14T14:21:11.658Z,4.10
2023-04-14T14:24:00.957Z,6.57
2023-04-14T14:26:47.515Z,4.30
2023-04-14T14:29:36.742Z,7.80
2023-04-14T14:32:24.667Z,2.60
2023-04-14T14:35:11.398Z,4.45
2023-04-14T14:37:58.967Z,3.47
2023-04-14T14:40:46.381Z,5.95
2023-04-14T14:43:32.654Z,3.67
2023-04-14T14:46:19.108Z,3.00
2023-04-14T14:49:06.845Z,4.70
2023-04-14T14:51:53.103Z,3.90
2023-04-14T14:54:39.690Z,3.40
2023-04-14T14:57:30.338Z,7.30
2023-04-14T15:00:17.403Z,6.78
2023-04-14T15:03:05.282Z,7.03
2023-04-14T15:05:53.276Z,5.45
2023-04-14T15:08:39.640Z,3.90
2023-04-14T15:11:27.442Z,4.28
2023-04-14T15:14:13.682Z,5.22
2023-04-14T15:16:59.763Z,2.50
2023-04-14T15:19:46.377Z,3.47
2023-04-14T15:22:36.807Z,3.10
2023-04-14T15:25:23.007Z,5.25
2023-04-14T15:28:09.100Z,5.95
2023-04-14T15:30:55.916Z,4.20
2023-04-14T15:33:44.323Z,4.43
2023-04-14T15:36:32.505Z,4.55
2023-04-14T15:39:20.956Z,3.70
2023-04-14T15:42:07.513Z,5.43
2023-04-14T15:44:53.951Z,4.57
2023-04-14T15:47:40.292Z,3.90
2023-04-14T15:50:27.372Z,6.78
2023-04-14T15:53:13.701Z,6.82
2023-04-14T15:56:01.231Z,9.77
2023-04-14T15:58:47.377Z,4.20
2023-04-14T16:01:33.457Z,3.25
2023-04-14T16:04:20.260Z,3.30
2023-04-14T16:07:06.930Z,4.43
2023-04-14T16:09:53.665Z,2.50
2023-04-14T16:12:41.620Z,2.85
2023-04-14T16:15:28.265Z,3.78
2023-04-14T16:18:14.309Z,4.60
2023-04-14T16:21:00.428Z,3.00
2023-04-14T16:23:46.687Z,3.28
2023-04-14T16:26:34.078Z,4.53
2023-04-14T16:29:21.588Z,3.58
2023-04-14T16:32:08.303Z,3.63
2023-04-14T16:34:54.842Z,4.53
2023-04-14T16:37:41.522Z,3.83
2023-04-14T16:40:27.759Z,2.88
2023-04-14T16:43:14.007Z,3.63
2023-04-14T16:46:05.603Z,3.40
2023-04-14T16:48:52.455Z,4.63
2023-04-14T16:51:38.914Z,6.65
2023-04-14T16:54:24.982Z,7.70
2023-04-14T16:57:11.764Z,2.45
2023-04-14T16:59:57.934Z,2.80
2023-04-14T17:02:45.847Z,4.35
2023-04-14T17:05:32.439Z,6.20
2023-04-14T17:08:19.632Z,4.88
2023-04-14T17:11:06.612Z,8.57
2023-04-14T17:13:53.832Z,2.88
2023-04-14T17:16:41.349Z,4.85
2023-04-14T17:19:30.371Z,3.28
2023-04-14T17:22:17.623Z,4.80
2023-04-14T17:25:06.418Z,6.25
2023-04-14T17:27:53.692Z,4.47
2023-04-14T17:30:40.668Z,4.22
2023-04-14T17:33:28.135Z,5.00
2023-04-14T17:36:17.433Z,4.38
2023-04-14T17:39:04.421Z,7.40
2023-04-14T17:41:51.278Z,2.70
2023-04-14T17:44:38.192Z,4.88
2023-04-14T17:47:24.425Z,7.60
2023-04-14T17:50:11.791Z,4.95
2023-04-14T17:52:59.567Z,6.55
2023-04-14T17:55:46.102Z,8.48
2023-04-14T17:58:32.605Z,4.90
2023-04-14T18:01:19.366Z,5.88
2023-04-14T18:04:06.134Z,3.38
2023-04-14T18:06:56.025Z,3.53
2023-04-14T18:09:43.754Z,2.78
2023-04-14T18:12:30.858Z,5.88
2023-04-14T18:15:17.505Z,6.32
2023-04-14T18:18:04.020Z,4.88
2023-04-14T18:20:52.044Z,5.38
2023-04-14T18:23:38.689Z,5.85
2023-04-14T18:26:26.860Z,5.35
2023-04-14T18:29:13.327Z,8.45
2023-04-14T18:31:59.951Z,6.68
2023-04-14T18:34:46.600Z,7.85
2023-04-14T18:37:33.288Z,6.28
2023-04-14T18:40:19.769Z,3.92
2023-04-14T18:43:07.584Z,7.45
2023-04-14T18:45:53.908Z,7.65
2023-04-14T18:48:40.943Z,7.30
2023-04-14T18:51:27.506Z,8.82
2023-04-14T18:54:14.716Z,11.02
2023-04-14T18:57:01.106Z,9.15
2023-04-14T18:59:48.783Z,10.32
2023-04-14T19:02:35.430Z,7.38
2023-04-14T19:05:22.139Z,9.77
2023-04-14T19:08:08.778Z,5.32
2023-04-14T19:10:55.234Z,9.93
2023-04-14T19:13:42.305Z,7.43
2023-04-14T19:16:29.883Z,4.80
2023-04-14T19:19:16.665Z,3.53
2023-04-14T19:22:03.626Z,5.75
2023-04-14T19:24:50.915Z,4.78
2023-04-14T19:27:38.514Z,6.75
2023-04-14T19:30:25.043Z,5.95
2023-04-14T19:33:12.877Z,8.77
2023-04-14T19:35:59.441Z,6.78
2023-04-14T19:38:45.568Z,7.10
2023-04-14T19:41:32.008Z,10.45
2023-04-14T19:44:18.622Z,6.68
2023-04-14T19:47:04.954Z,11.60
2023-04-14T19:49:53.424Z,10.13
2023-04-14T19:52:39.694Z,12.25
2023-04-14T19:55:25.800Z,7.80
2023-04-14T19:58:12.750Z,9.75
2023-04-14T20:01:00.870Z,5.68
2023-04-14T20:04:05.587Z,7.53
2023-04-14T20:06:56.165Z,11.13
2023-04-14T20:09:46.425Z,4.75
2023-04-14T20:12:33.174Z,5.57
2023-04-14T20:15:19.743Z,5.38
2023-04-14T20:18:06.238Z,8.82
2023-04-14T20:20:52.625Z,7.95
2023-04-14T20:23:40.705Z,8.60
2023-04-14T20:26:27.439Z,7.78
2023-04-14T20:29:13.941Z,6.13
2023-04-14T20:32:00.543Z,6.65
2023-04-14T20:34:47.170Z,5.55
2023-04-14T20:37:33.638Z,6.75
2023-04-14T20:40:22.210Z,6.38
2023-04-14T20:43:08.736Z,7.78
2023-04-14T20:45:55.806Z,8.45
2023-04-14T20:48:42.397Z,8.15
2023-04-14T20:51:29.118Z,9.23
2023-04-14T20:54:15.617Z,5.05
2023-04-14T20:57:05.430Z,6.03
2023-04-14T20:59:51.950Z,6.53
2023-04-14T21:02:38.773Z,8.32
2023-04-14T21:05:26.299Z,4.32
2023-04-14T21:08:12.665Z,7.57
2023-04-14T21:11:15.703Z,5.13
2023-04-14T21:15:43.488Z,10.68
2023-04-14T21:17:11.869Z,8.40
2023-04-14T21:19:58.487Z,8.60
2023-04-14T21:22:44.836Z,8.00
2023-04-14T21:25:31.606Z,12.75
2023-04-14T21:28:18.778Z,14.13
2023-04-14T21:31:07.592Z,12.55
2023-04-14T21:33:53.902Z,10.77
2023-04-14T21:36:40.883Z,9.40
2023-04-14T21:39:29.790Z,8.35
2023-04-14T21:42:15.905Z,6.28
2023-04-14T21:45:04.715Z,10.13
2023-04-14T21:47:52.222Z,6.32
2023-04-14T21:50:39.623Z,10.95
2023-04-14T21:53:26.264Z,8.38
2023-04-14T21:56:14.404Z,18.63
2023-04-14T21:59:01.044Z,19.13
2023-04-14T22:01:49.314Z,7.30
2023-04-14T22:04:37.673Z,9.35
2023-04-14T22:07:24.892Z,6.05
2023-04-14T22:10:11.912Z,10.25
2023-04-14T22:12:57.986Z,10.48
2023-04-14T22:15:44.469Z,11.57
2023-04-14T22:18:31.783Z,11.23
2023-04-14T22:21:19.836Z,5.63
2023-04-14T22:24:07.216Z,10.57
2023-04-14T22:26:53.768Z,9.65
2023-04-14T22:29:40.592Z,8.30
2023-04-14T22:32:27.160Z,9.65
2023-04-14T22:35:13.899Z,6.15
2023-04-14T22:38:01.606Z,7.40
2023-04-14T22:40:49.827Z,6.60
2023-04-14T22:43:38.253Z,7.65
2023-04-14T22:46:24.410Z,9.55
2023-04-14T22:49:10.683Z,5.30
2023-04-14T22:51:57.664Z,10.48
2023-04-14T22:54:45.769Z,7.70
2023-04-14T22:57:33.204Z,6.38
2023-04-14T23:00:21.268Z,12.02
2023-04-14T23:03:07.410Z,8.75
2023-04-14T23:05:55.001Z,11.30
2023-04-14T23:08:40.985Z,10.85
2023-04-14T23:11:28.638Z,10.05
2023-04-14T23:14:15.046Z,10.93
2023-04-14T23:17:01.270Z,10.80
2023-04-14T23:19:47.560Z,10.38
2023-04-14T23:22:33.836Z,10.73
2023-04-14T23:25:20.325Z,6.68
2023-04-14T23:28:08.272Z,6.95
2023-04-14T23:30:54.688Z,10.73
2023-04-14T23:33:40.961Z,9.02
2023-04-14T23:36:27.151Z,13.05
2023-04-14T23:39:13.810Z,8.50
2023-04-14T23:42:00.548Z,11.52
2023-04-14T23:44:48.163Z,8.90
2023-04-14T23:47:34.440Z,14.93
2023-04-14T23:50:20.589Z,10.40
2023-04-14T23:53:07.922Z,10.38
2023-04-14T23:55:54.498Z,9.75
2023-04-14T23:58:40.605Z,12.15
